createdAt,value
2023-05-23T00:02:15.908Z,98589.13
2023-05-23T00:04:43.178Z,98587.53
2023-05-23T00:07:10.364Z,98590.34
2023-05-23T00:09:37.568Z,98594.84
2023-05-23T00:12:04.543Z,98596.75
2023-05-23T00:14:34.050Z,98602.91
2023-05-23T00:17:01.648Z,98596.94
2023-05-23T00:19:28.909Z,98603.22
2023-05-23T00:21:58.853Z,98597.22
2023-05-23T00:24:26.104Z,98595.72
2023-05-23T00:26:52.933Z,98594.91
2023-05-23T00:29:20.638Z,98597.59
2023-05-23T00:31:47.603Z,98597.63
2023-05-23T00:34:15.912Z,98603.06
2023-05-23T00:36:43.712Z,98592.75
2023-05-23T00:39:19.326Z,98600.75
2023-05-23T00:41:52.369Z,98601.72
2023-05-23T00:44:20.737Z,98597.50
2023-05-23T00:46:50.109Z,98599.38
2023-05-23T00:49:20.336Z,98594.25
2023-05-23T00:51:47.375Z,98590.88
2023-05-23T00:54:15.150Z,98584.91
2023-05-23T00:56:43.978Z,98585.00
2023-05-23T00:59:12.709Z,98578.97
2023-05-23T01:01:40.491Z,98583.44
2023-05-23T01:04:07.764Z,98581.72
2023-05-23T01:06:34.611Z,98587.00
2023-05-23T01:09:03.012Z,98584.47
2023-05-23T01:11:42.438Z,98584.50
2023-05-23T01:14:16.461Z,98574.88
2023-05-23T01:16:53.833Z,98578.50
2023-05-23T01:19:33.142Z,98575.16
2023-05-23T01:22:02.194Z,98570.09
2023-05-23T01:24:36.596Z,98576.22
2023-05-23T01:27:09.938Z,98574.56
2023-05-23T01:29:42.511Z,98574.69
2023-05-23T01:32:12.123Z,98583.47
2023-05-23T01:34:40.059Z,98580.00
2023-05-23T01:37:18.751Z,98577.38
2023-05-23T01:39:46.268Z,98582.78
2023-05-23T01:42:13.492Z,98579.31
2023-05-23T01:44:41.033Z,98578.59
2023-05-23T01:47:09.838Z,98578.59
2023-05-23T01:49:37.269Z,98571.78
2023-05-23T01:52:04.935Z,98570.13
2023-05-23T01:54:32.666Z,98572.94
2023-05-23T01:57:00.264Z,98560.78
2023-05-23T01:59:27.331Z,98572.25
2023-05-23T02:01:54.058Z,98569.75
2023-05-23T02:04:21.852Z,98568.97
2023-05-23T02:06:48.601Z,98572.63
2023-05-23T02:09:16.635Z,98570.88
2023-05-23T02:11:43.515Z,98570.16
2023-05-23T02:14:11.328Z,98575.44
2023-05-23T02:16:38.215Z,98564.19
2023-05-23T02:19:05.346Z,98560.72
2023-05-23T02:21:34.934Z,98561.66
2023-05-23T02:24:02.401Z,98549.53
2023-05-23T02:26:29.185Z,98556.56
2023-05-23T02:28:56.189Z,98555.69
2023-05-23T02:31:23.707Z,98550.56
2023-05-23T02:33:50.806Z,98548.06
2023-05-23T02:36:17.701Z,98549.88
2023-05-23T02:38:44.904Z,98547.34
2023-05-23T02:41:11.636Z,98549.25
2023-05-23T02:43:39.363Z,98553.56
2023-05-23T02:46:06.128Z,98549.25
2023-05-23T02:48:33.245Z,98551.84
2023-05-23T02:51:00.245Z,98546.66
2023-05-23T02:53:27.680Z,98542.34
2023-05-23T02:55:54.410Z,98544.97
2023-05-23T02:58:21.459Z,98549.28
2023-05-23T03:00:48.222Z,98531.88
2023-05-23T03:03:17.050Z,98539.66
2023-05-23T03:05:44.095Z,98538.69
2023-05-23T03:08:11.194Z,98539.50
2023-05-23T03:10:38.016Z,98531.56
2023-05-23T03:13:05.235Z,98536.72
2023-05-23T03:15:32.095Z,98528.69
2023-05-23T03:17:59.331Z,98525.88
2023-05-23T03:20:26.191Z,98528.28
2023-05-23T03:22:53.242Z,98532.34
2023-05-23T03:25:20.017Z,98535.59
2023-05-23T03:27:47.068Z,98538.78
2023-05-23T03:30:13.929Z,98526.28
2023-05-23T03:32:41.263Z,98522.50
2023-05-23T03:35:08.387Z,98530.78
2023-05-23T03:37:35.404Z,98522.44
2023-05-23T03:40:02.141Z,98523.78
2023-05-23T03:42:29.399Z,98524.34
2023-05-23T03:44:56.867Z,98528.56
2023-05-23T03:47:26.532Z,98533.44
2023-05-23T03:49:53.313Z,98522.53
2023-05-23T03:52:20.398Z,98531.63
2023-05-23T03:54:47.144Z,98526.69
2023-05-23T03:57:14.171Z,98522.56
2023-05-23T03:59:41.124Z,98521.78
2023-05-23T04:02:08.530Z,98517.47
2023-05-23T04:04:35.447Z,98521.00
2023-05-23T04:07:02.746Z,98528.91
2023-05-23T04:09:29.508Z,98519.13
2023-05-23T04:11:56.774Z,98511.41
2023-05-23T04:14:24.379Z,98520.38
2023-05-23T04:16:51.452Z,98512.56
2023-05-23T04:19:18.264Z,98507.03
2023-05-23T04:21:45.437Z,98512.88
2023-05-23T04:24:12.157Z,98509.97
2023-05-23T04:26:39.684Z,98515.63
2023-05-23T04:29:06.644Z,98507.03
2023-05-23T04:31:34.431Z,98512.63
2023-05-23T04:34:02.587Z,98507.66
2023-05-23T04:36:30.371Z,98503.47
2023-05-23T04:38:57.337Z,98503.47
2023-05-23T04:41:24.521Z,98492.78
2023-05-23T04:43:54.727Z,98497.88
2023-05-23T04:46:27.724Z,98498.28
2023-05-23T04:48:55.414Z,98495.50
2023-05-23T04:51:22.539Z,98498.88
2023-05-23T04:53:49.805Z,98491.31
2023-05-23T04:56:28.377Z,98491.34
2023-05-23T04:58:55.205Z,98480.50
2023-05-23T05:01:24.672Z,98484.06
2023-05-23T05:03:52.245Z,98484.72
2023-05-23T05:06:19.576Z,98476.38
2023-05-23T05:08:46.289Z,98480.13
2023-05-23T05:11:13.419Z,98484.22
2023-05-23T05:13:40.209Z,98485.78
2023-05-23T05:16:07.784Z,98482.03
2023-05-23T05:18:35.085Z,98482.09
2023-05-23T05:21:02.242Z,98472.72
2023-05-23T05:23:29.037Z,98468.56
2023-05-23T05:25:56.742Z,98469.91
2023-05-23T05:28:23.562Z,98472.78
2023-05-23T05:30:54.382Z,98473.03
2023-05-23T05:33:25.060Z,98468.66
2023-05-23T05:35:52.242Z,98469.41
2023-05-23T05:38:19.144Z,98468.00
2023-05-23T05:40:46.237Z,98461.34
2023-05-23T05:43:13.091Z,98462.13
2023-05-23T05:45:40.440Z,98463.34
2023-05-23T05:48:08.011Z,98456.97
2023-05-23T05:50:35.301Z,98466.56
2023-05-23T05:53:02.219Z,98464.25
2023-05-23T05:55:29.568Z,98460.41
2023-05-23T05:57:56.514Z,98457.78
2023-05-23T06:00:24.127Z,98456.94
2023-05-23T06:02:51.988Z,98457.03
2023-05-23T06:05:19.250Z,98455.59
2023-05-23T06:07:48.054Z,98459.44
2023-05-23T06:10:15.156Z,98462.41
2023-05-23T06:12:42.238Z,98457.09
2023-05-23T06:15:14.772Z,98463.81
2023-05-23T06:17:41.896Z,98462.63
2023-05-23T06:20:09.115Z,98462.81
2023-05-23T06:22:36.066Z,98461.13
2023-05-23T06:25:03.628Z,98463.63
2023-05-23T06:27:30.469Z,98475.63
2023-05-23T06:29:57.558Z,98460.94
2023-05-23T06:32:24.351Z,98461.06
2023-05-23T06:34:51.433Z,98475.19
2023-05-23T06:37:18.193Z,98471.19
2023-05-23T06:39:45.293Z,98468.84
2023-05-23T06:42:12.043Z,98471.19
2023-05-23T06:44:39.079Z,98466.19
2023-05-23T06:47:06.036Z,98462.81
2023-05-23T06:49:33.072Z,98460.16
2023-05-23T06:52:00.108Z,98461.44
2023-05-23T06:54:28.851Z,98459.31
2023-05-23T06:56:55.651Z,98461.00
2023-05-23T06:59:22.754Z,98456.47
2023-05-23T07:01:49.520Z,98459.25
2023-05-23T07:04:16.621Z,98454.94
2023-05-23T07:06:43.409Z,98451.41
2023-05-23T07:09:12.005Z,98456.91
2023-05-23T07:11:40.921Z,98453.13
2023-05-23T07:14:08.045Z,98450.41
2023-05-23T07:16:34.823Z,98449.13
2023-05-23T07:19:02.124Z,98462.00
2023-05-23T07:21:29.154Z,98456.31
2023-05-23T07:23:56.332Z,98454.97
2023-05-23T07:26:23.067Z,98446.69
2023-05-23T07:28:50.677Z,98453.94
2023-05-23T07:31:17.765Z,98456.47
2023-05-23T07:33:44.978Z,98454.53
2023-05-23T07:36:11.942Z,98447.59
2023-05-23T07:38:39.468Z,98455.25
2023-05-23T07:41:11.477Z,98449.88
2023-05-23T07:43:39.091Z,98438.41
2023-05-23T07:46:05.941Z,98437.56
2023-05-23T07:48:33.307Z,98448.03
2023-05-23T07:51:00.180Z,98429.44
2023-05-23T07:53:27.253Z,98429.22
2023-05-23T07:55:54.008Z,98438.34
2023-05-23T07:58:21.078Z,98432.63
2023-05-23T08:00:48.006Z,98430.69
2023-05-23T08:03:15.371Z,98429.97
2023-05-23T08:05:42.187Z,98426.00
2023-05-23T08:08:09.287Z,98422.50
2023-05-23T08:10:36.087Z,98423.06
2023-05-23T08:13:06.905Z,98425.38
2023-05-23T08:15:33.996Z,98417.44
2023-05-23T08:18:01.434Z,98417.94
2023-05-23T08:20:32.292Z,98421.84
2023-05-23T08:23:02.892Z,98419.16
2023-05-23T08:25:32.663Z,98426.00
2023-05-23T08:28:00.603Z,98427.75
2023-05-23T08:30:28.326Z,98418.13
2023-05-23T08:32:56.339Z,98410.66
2023-05-23T08:35:23.215Z,98421.66
2023-05-23T08:37:51.000Z,98410.94
2023-05-23T08:40:22.154Z,98417.16
2023-05-23T08:42:50.455Z,98409.16
2023-05-23T08:45:17.708Z,98409.81
2023-05-23T08:47:45.879Z,98404.72
2023-05-23T08:50:17.565Z,98396.78
2023-05-23T08:52:58.383Z,98404.31
2023-05-23T08:55:28.656Z,98402.22
2023-05-23T08:57:56.355Z,98399.38
2023-05-23T09:00:24.822Z,98400.84
2023-05-23T09:02:52.819Z,98396.63
2023-05-23T09:05:19.807Z,98392.53
2023-05-23T09:07:51.891Z,98404.34
2023-05-23T09:10:20.582Z,98389.81
2023-05-23T09:12:47.934Z,98407.22
2023-05-23T09:15:14.930Z,98389.59
2023-05-23T09:17:42.147Z,98398.97
2023-05-23T09:20:14.318Z,98401.94
2023-05-23T09:22:42.158Z,98398.72
2023-05-23T09:25:09.197Z,98402.31
2023-05-23T09:27:36.543Z,98394.69
2023-05-23T09:30:10.126Z,98392.84
2023-05-23T09:32:37.454Z,98384.16
2023-05-23T09:35:08.040Z,98395.44
2023-05-23T09:37:35.084Z,98391.94
2023-05-23T09:40:06.600Z,98391.28
2023-05-23T09:42:34.336Z,98391.72
2023-05-23T09:45:03.865Z,98397.38
2023-05-23T09:47:31.889Z,98396.13
2023-05-23T09:49:58.835Z,98382.06
2023-05-23T09:52:26.461Z,98384.16
2023-05-23T09:54:54.116Z,98381.69
2023-05-23T09:57:23.110Z,98374.53
2023-05-23T09:59:56.599Z,98373.97
2023-05-23T10:02:37.145Z,98385.63
2023-05-23T10:05:05.131Z,98382.00
2023-05-23T10:07:33.251Z,98385.25
2023-05-23T10:10:03.603Z,98373.03
2023-05-23T10:12:50.273Z,98363.72
2023-05-23T10:15:18.724Z,98362.66
2023-05-23T10:17:51.899Z,98368.09
2023-05-23T10:20:21.942Z,98354.06
2023-05-23T10:22:49.071Z,98359.25
2023-05-23T10:25:16.762Z,98350.50
2023-05-23T10:27:44.553Z,98355.56
2023-05-23T10:30:11.671Z,98361.41
2023-05-23T10:32:39.432Z,98353.84
2023-05-23T10:35:09.445Z,98360.34
2023-05-23T10:37:36.445Z,98349.63
2023-05-23T10:40:38.986Z,98353.63
2023-05-23T10:43:10.845Z,98341.47
2023-05-23T10:45:43.884Z,98347.34
2023-05-23T10:48:37.603Z,98345.09
2023-05-23T10:51:17.532Z,98341.72
2023-05-23T10:53:46.270Z,98331.00
2023-05-23T10:56:23.877Z,98336.47
2023-05-23T10:58:55.062Z,98327.06
2023-05-23T11:01:22.196Z,98328.38
2023-05-23T11:03:54.130Z,98327.13
2023-05-23T11:06:32.495Z,98321.44
2023-05-23T11:09:07.689Z,98320.75
2023-05-23T11:12:07.188Z,98327.09
2023-05-23T11:14:53.268Z,98326.88
2023-05-23T11:17:32.027Z,98317.25
2023-05-23T11:20:00.721Z,98314.94
2023-05-23T11:22:27.820Z,98306.59
2023-05-23T11:24:56.129Z,98303.69
2023-05-23T11:27:28.872Z,98307.66
2023-05-23T11:30:00.014Z,98304.47
2023-05-23T11:32:28.182Z,98303.16
2023-05-23T11:34:55.265Z,98296.75
2023-05-23T11:37:25.946Z,98298.72
2023-05-23T11:39:54.250Z,98299.53
2023-05-23T11:42:21.038Z,98289.84
2023-05-23T11:44:51.605Z,98294.13
2023-05-23T11:47:18.690Z,98282.88
2023-05-23T11:49:49.616Z,98269.66
2023-05-23T11:52:16.576Z,98279.06
2023-05-23T11:54:43.767Z,98275.34
2023-05-23T11:57:11.120Z,98269.28
2023-05-23T11:59:38.638Z,98263.84
2023-05-23T12:02:06.525Z,98269.72
2023-05-23T12:04:35.042Z,98263.94
2023-05-23T12:07:04.730Z,98262.03
2023-05-23T12:09:31.903Z,98252.84
2023-05-23T12:11:58.688Z,98250.88
2023-05-23T12:14:29.040Z,98249.84
2023-05-23T12:16:55.903Z,98242.34
2023-05-23T12:19:23.048Z,98242.72
2023-05-23T12:21:50.022Z,98242.47
2023-05-23T12:24:20.770Z,98254.47
2023-05-23T12:26:55.012Z,98234.28
2023-05-23T12:29:33.664Z,98241.31
2023-05-23T12:32:02.114Z,98229.16
2023-05-23T12:34:29.295Z,98226.09
2023-05-23T12:37:10.488Z,98221.50
2023-05-23T12:39:45.474Z,98218.75
2023-05-23T12:42:12.609Z,98228.72
2023-05-23T12:44:41.148Z,98221.13
2023-05-23T12:47:07.968Z,98217.13
2023-05-23T12:49:35.100Z,98211.06
2023-05-23T12:52:01.936Z,98210.88
2023-05-23T12:54:29.029Z,98207.47
2023-05-23T12:56:55.941Z,98214.72
2023-05-23T12:59:23.048Z,98206.88
2023-05-23T13:01:49.812Z,98203.25
2023-05-23T13:04:16.952Z,98211.56
2023-05-23T13:06:43.765Z,98202.56
2023-05-23T13:09:10.775Z,98201.53
2023-05-23T13:11:37.978Z,98203.53
2023-05-23T13:14:05.101Z,98192.31
2023-05-23T13:16:33.178Z,98203.94
2023-05-23T13:19:00.401Z,98195.84
2023-05-23T13:21:27.793Z,98188.09
2023-05-23T13:23:54.900Z,98198.41
2023-05-23T13:26:21.873Z,98193.91
2023-05-23T13:28:48.928Z,98186.91
2023-05-23T13:31:15.709Z,98185.25
2023-05-23T13:33:42.780Z,98193.56
2023-05-23T13:36:09.554Z,98195.78
2023-05-23T13:38:37.652Z,98193.34
2023-05-23T13:41:04.558Z,98189.88
2023-05-23T13:43:31.680Z,98198.97
2023-05-23T13:45:58.561Z,98195.38
2023-05-23T13:48:25.711Z,98203.50
2023-05-23T13:50:52.622Z,98188.88
2023-05-23T13:53:21.604Z,98184.97
2023-05-23T13:55:48.510Z,98182.97
2023-05-23T13:58:15.760Z,98179.41
2023-05-23T14:00:43.209Z,98176.69
2023-05-23T14:03:10.733Z,98187.13
2023-05-23T14:05:37.767Z,98181.94
2023-05-23T14:08:04.970Z,98184.81
2023-05-23T14:10:33.548Z,98180.88
2023-05-23T14:13:00.878Z,98184.81
2023-05-23T14:15:28.355Z,98186.81
2023-05-23T14:17:56.158Z,98191.56
2023-05-23T14:20:23.376Z,98189.66
2023-05-23T14:22:51.327Z,98181.25
2023-05-23T14:25:18.903Z,98180.34
2023-05-23T14:27:46.079Z,98181.09
2023-05-23T14:30:13.008Z,98182.22
2023-05-23T14:32:40.586Z,98181.06
2023-05-23T14:35:08.400Z,98180.75
2023-05-23T14:37:35.683Z,98185.97
2023-05-23T14:40:03.317Z,98173.16
2023-05-23T14:42:30.765Z,98172.75
2023-05-23T14:44:57.519Z,98169.00
2023-05-23T14:47:24.632Z,98169.78
2023-05-23T14:49:51.475Z,98169.66
2023-05-23T14:52:18.754Z,98169.25
2023-05-23T14:54:45.574Z,98166.59
2023-05-23T14:57:12.616Z,98170.13
2023-05-23T14:59:39.434Z,98169.72
2023-05-23T15:02:08.245Z,98162.75
2023-05-23T15:04:36.074Z,98172.69
2023-05-23T15:07:03.155Z,98170.50
2023-05-23T15:09:29.899Z,98172.03
2023-05-23T15:11:57.011Z,98173.13
2023-05-23T15:14:29.054Z,98171.41
2023-05-23T15:16:56.635Z,98170.59
2023-05-23T15:19:23.493Z,98161.53
2023-05-23T15:21:51.821Z,98162.19
2023-05-23T15:24:19.139Z,98164.63
2023-05-23T15:26:47.205Z,98161.81
2023-05-23T15:29:15.525Z,98162.56
2023-05-23T15:31:42.791Z,98165.75
2023-05-23T15:34:09.681Z,98166.50
2023-05-23T15:36:36.934Z,98153.84
2023-05-23T15:39:04.932Z,98162.94
2023-05-23T15:41:32.461Z,98164.72
2023-05-23T15:44:02.441Z,98156.06
2023-05-23T15:46:29.893Z,98155.41
2023-05-23T15:49:05.067Z,98159.13
2023-05-23T15:51:40.744Z,98158.84
2023-05-23T15:54:07.573Z,98154.09
2023-05-23T15:56:34.624Z,98156.50
2023-05-23T15:59:01.400Z,98152.50
2023-05-23T16:01:28.522Z,98151.41
2023-05-23T16:03:56.038Z,98145.66
2023-05-23T16:06:23.764Z,98142.00
2023-05-23T16:08:50.495Z,98137.69
2023-05-23T16:11:17.746Z,98149.63
2023-05-23T16:13:44.498Z,98143.03
2023-05-23T16:16:11.621Z,98140.69
2023-05-23T16:18:38.484Z,98137.41
2023-05-23T16:21:05.867Z,98142.59
2023-05-23T16:23:32.613Z,98144.34
2023-05-23T16:25:59.826Z,98144.78
2023-05-23T16:28:27.606Z,98147.34
2023-05-23T16:30:55.822Z,98145.03
2023-05-23T16:33:22.575Z,98145.38
2023-05-23T16:35:49.630Z,98146.59
2023-05-23T16:38:16.414Z,98140.34
2023-05-23T16:40:44.016Z,98141.56
2023-05-23T16:43:11.488Z,98131.78
2023-05-23T16:45:41.065Z,98146.63
2023-05-23T16:48:08.730Z,98143.38
2023-05-23T16:50:35.796Z,98149.63
2023-05-23T16:53:02.671Z,98140.75
2023-05-23T16:55:29.668Z,98137.09
2023-05-23T16:57:56.545Z,98141.34
2023-05-23T17:00:23.655Z,98138.53
2023-05-23T17:02:50.489Z,98134.88
2023-05-23T17:05:17.774Z,98140.47
2023-05-23T17:07:44.580Z,98142.53
2023-05-23T17:10:11.849Z,98141.38
2023-05-23T17:12:38.685Z,98139.38
2023-05-23T17:15:07.338Z,98135.91
2023-05-23T17:17:34.210Z,98150.59
2023-05-23T17:20:01.469Z,98150.09
2023-05-23T17:22:28.244Z,98153.47
2023-05-23T17:24:55.754Z,98151.66
2023-05-23T17:27:22.548Z,98150.84
2023-05-23T17:29:49.752Z,98149.34
2023-05-23T17:32:16.566Z,98158.41
2023-05-23T17:34:44.358Z,98158.88
2023-05-23T17:37:11.878Z,98156.38
2023-05-23T17:39:38.895Z,98154.47
2023-05-23T17:42:05.903Z,98147.25
2023-05-23T17:44:33.216Z,98153.25
2023-05-23T17:47:00.161Z,98141.91
2023-05-23T17:49:27.265Z,98156.13
2023-05-23T17:51:54.104Z,98153.56
2023-05-23T17:54:21.190Z,98151.69
2023-05-23T17:56:47.921Z,98152.13
2023-05-23T17:59:17.858Z,98158.44
2023-05-23T18:01:44.652Z,98153.09
2023-05-23T18:04:11.807Z,98159.34
2023-05-23T18:06:38.565Z,98162.75
2023-05-23T18:09:05.569Z,98161.06
2023-05-23T18:11:32.343Z,98157.41
2023-05-23T18:14:00.416Z,98160.75
2023-05-23T18:16:27.591Z,98161.34
2023-05-23T18:18:54.705Z,98161.78
2023-05-23T18:21:21.914Z,98165.47
2023-05-23T18:23:49.059Z,98176.19
2023-05-23T18:26:15.990Z,98176.03
2023-05-23T18:28:43.005Z,98182.91
2023-05-23T18:31:09.830Z,98189.13
2023-05-23T18:33:37.091Z,98200.72
2023-05-23T18:36:04.134Z,98208.97
2023-05-23T18:38:31.285Z,98203.72
2023-05-23T18:40:58.138Z,98216.19
2023-05-23T18:43:25.139Z,98223.97
2023-05-23T18:45:51.915Z,98223.56
2023-05-23T18:48:19.072Z,98224.84
2023-05-23T18:50:45.957Z,98222.00
2023-05-23T18:53:13.136Z,98221.75
2023-05-23T18:55:39.904Z,98221.75
2023-05-23T18:58:07.124Z,98229.59
2023-05-23T19:00:33.903Z,98219.06
2023-05-23T19:03:01.249Z,98213.16
2023-05-23T19:05:29.477Z,98218.78
2023-05-23T19:07:56.823Z,98220.38
2023-05-23T19:10:23.573Z,98212.91
2023-05-23T19:12:50.626Z,98213.59
2023-05-23T19:15:17.425Z,98215.88
2023-05-23T19:17:44.543Z,98218.72
2023-05-23T19:20:12.075Z,98217.56
2023-05-23T19:22:50.993Z,98217.72
2023-05-23T19:25:19.057Z,98229.66
2023-05-23T19:27:46.148Z,98224.34
2023-05-23T19:30:12.968Z,98224.31
2023-05-23T19:32:40.211Z,98225.72
2023-05-23T19:35:07.206Z,98228.00
2023-05-23T19:37:34.322Z,98221.78
2023-05-23T19:40:01.859Z,98231.22
2023-05-23T19:42:28.948Z,98226.56
2023-05-23T19:44:55.722Z,98228.41
2023-05-23T19:47:22.873Z,98225.88
2023-05-23T19:49:49.679Z,98226.28
2023-05-23T19:52:16.761Z,98224.03
2023-05-23T19:54:43.576Z,98227.25
2023-05-23T19:57:10.691Z,98222.75
2023-05-23T19:59:37.978Z,98229.72
2023-05-23T20:02:05.139Z,98218.06
2023-05-23T20:04:31.949Z,98215.94
2023-05-23T20:06:59.781Z,98223.50
2023-05-23T20:09:26.546Z,98218.84
2023-05-23T20:11:53.620Z,98222.22
2023-05-23T20:14:20.690Z,98226.13
2023-05-23T20:16:47.740Z,98219.50
2023-05-23T20:19:14.747Z,98226.53
2023-05-23T20:21:41.863Z,98226.66
2023-05-23T20:24:09.032Z,98224.28
2023-05-23T20:26:36.140Z,98225.25
2023-05-23T20:29:02.899Z,98233.41
2023-05-23T20:31:30.045Z,98232.53
2023-05-23T20:33:56.919Z,98229.03
2023-05-23T20:36:24.175Z,98224.69
2023-05-23T20:38:52.640Z,98226.63
2023-05-23T20:41:20.157Z,98225.22
2023-05-23T20:43:48.349Z,98233.78
2023-05-23T20:46:15.622Z,98230.84
2023-05-23T20:48:42.553Z,98226.06
2023-05-23T20:51:09.725Z,98229.34
2023-05-23T20:53:36.492Z,98225.69
2023-05-23T20:56:04.051Z,98228.22
2023-05-23T20:58:30.926Z,98229.22
2023-05-23T21:00:58.825Z,98230.16
2023-05-23T21:03:25.853Z,98231.16
2023-05-23T21:05:53.035Z,98232.28
2023-05-23T21:08:19.964Z,98228.06
2023-05-23T21:10:50.663Z,98228.19
2023-05-23T21:13:19.218Z,98226.88
2023-05-23T21:15:46.285Z,98233.50
2023-05-23T21:18:13.059Z,98231.47
2023-05-23T21:20:40.238Z,98234.53
2023-05-23T21:23:07.207Z,98234.94
2023-05-23T21:25:34.696Z,98240.81
2023-05-23T21:28:01.492Z,98234.91
2023-05-23T21:30:28.574Z,98243.50
2023-05-23T21:32:55.563Z,98242.34
2023-05-23T21:35:22.694Z,98242.16
2023-05-23T21:37:49.494Z,98249.25
2023-05-23T21:40:16.677Z,98248.78
2023-05-23T21:42:43.470Z,98245.53
2023-05-23T21:45:10.867Z,98241.16
2023-05-23T21:47:37.753Z,98255.47
2023-05-23T21:50:04.947Z,98241.44
2023-05-23T21:52:31.781Z,98250.53
2023-05-23T21:54:58.784Z,98252.50
2023-05-23T21:57:25.618Z,98259.03
2023-05-23T21:59:52.660Z,98241.75
2023-05-23T22:02:19.506Z,98252.81
2023-05-23T22:04:46.867Z,98247.25
2023-05-23T22:07:13.599Z,98254.06
2023-05-23T22:09:40.800Z,98246.13
2023-05-23T22:12:08.260Z,98253.03
2023-05-23T22:14:35.641Z,98243.25
2023-05-23T22:17:03.880Z,98248.09
2023-05-23T22:19:30.997Z,98242.53
2023-05-23T22:21:57.824Z,98246.41
2023-05-23T22:24:25.489Z,98250.28
2023-05-23T22:26:52.392Z,98243.53
2023-05-23T22:29:19.651Z,98242.53
2023-05-23T22:31:47.670Z,98245.31
2023-05-23T22:34:15.225Z,98242.81
2023-05-23T22:36:42.083Z,98242.31
2023-05-23T22:39:09.680Z,98242.56
2023-05-23T22:41:36.722Z,98246.31
2023-05-23T22:44:03.785Z,98242.81
2023-05-23T22:46:30.694Z,98247.16
2023-05-23T22:48:58.251Z,98237.50
2023-05-23T22:51:25.092Z,98236.41
2023-05-23T22:53:53.047Z,98237.84
2023-05-23T22:56:19.907Z,98235.66
2023-05-23T22:58:46.981Z,98239.50
2023-05-23T23:01:13.809Z,98241.09
2023-05-23T23:03:41.273Z,98242.63
2023-05-23T23:06:09.397Z,98240.97
2023-05-23T23:08:37.638Z,98246.53
2023-05-23T23:11:04.507Z,98244.84
2023-05-23T23:13:31.573Z,98246.78
2023-05-23T23:15:58.787Z,98242.66
2023-05-23T23:18:26.972Z,98252.72
2023-05-23T23:20:54.534Z,98246.94
2023-05-23T23:23:21.620Z,98245.59
2023-05-23T23:25:50.216Z,98247.53
2023-05-23T23:28:17.650Z,98248.63
2023-05-23T23:30:44.634Z,98242.56
2023-05-23T23:33:12.027Z,98245.50
2023-05-23T23:35:38.982Z,98245.50
2023-05-23T23:38:06.024Z,98245.59
2023-05-23T23:40:32.768Z,98247.53
2023-05-23T23:42:59.779Z,98244.97
2023-05-23T23:45:26.548Z,98241.59
2023-05-23T23:47:53.644Z,98245.34
2023-05-23T23:50:20.572Z,98245.50
2023-05-23T23:52:47.688Z,98240.28
2023-05-23T23:55:14.499Z,98241.38
2023-05-23T23:57:41.585Z,98248.50
